Time;durP1;ratioP1;P1;durP2;ratioP2;P2;SDS_P1;SDS_P2;PMS_P1;PMS_P2;Temp;Humidity;BMP_temperature;BMP_pressure;BME280_temperature;BME280_humidity;BME280_pressure;Samples;Min_cycle;Max_cycle;Signal;HPM_P1;HPM_P2
2023/09/05 00:01:39;;;;;;;3.15;2.40;;;18.30;99.90;;;;;;5052493;28;20213;-58
2023/09/05 00:04:06;;;;;;;2.75;2.53;;;18.30;99.90;;;;;;5052591;28;20205;-57
2023/09/05 00:06:35;;;;;;;3.47;2.70;;;18.20;99.90;;;;;;5051945;28;20244;-56
2023/09/05 00:09:02;;;;;;;3.50;2.83;;;18.20;99.90;;;;;;5052634;28;20224;-58
2023/09/05 00:11:28;;;;;;;2.85;2.50;;;18.10;99.90;;;;;;5052032;28;20285;-55
2023/09/05 00:13:55;;;;;;;6.80;2.92;;;18.10;99.90;;;;;;5052216;28;20229;-58
2023/09/05 00:16:22;;;;;;;5.65;2.40;;;18.00;99.90;;;;;;5051794;28;20237;-57
2023/09/05 00:18:48;;;;;;;3.08;2.78;;;17.90;99.90;;;;;;5052010;28;20201;-56
2023/09/05 00:21:18;;;;;;;4.82;2.95;;;17.80;99.90;;;;;;5052173;28;20217;-56
2023/09/05 00:23:46;;;;;;;3.03;2.50;;;17.80;99.90;;;;;;5052210;28;20215;-56
2023/09/05 00:26:13;;;;;;;2.88;2.53;;;17.70;99.90;;;;;;5051835;28;20232;-57
2023/09/05 00:28:40;;;;;;;4.43;2.72;;;17.60;99.90;;;;;;5052199;28;20205;-57
2023/09/05 00:31:07;;;;;;;3.33;2.78;;;17.60;99.90;;;;;;5051779;28;20206;-56
2023/09/05 00:33:34;;;;;;;3.97;2.60;;;17.60;99.90;;;;;;5051410;28;20268;-57
2023/09/05 00:36:01;;;;;;;4.70;2.95;;;17.60;99.90;;;;;;5051694;28;20209;-56
2023/09/05 00:38:27;;;;;;;4.40;2.50;;;17.60;99.90;;;;;;5051862;28;20205;-57
2023/09/05 00:40:56;;;;;;;3.45;2.83;;;17.50;99.90;;;;;;5051873;28;20213;-57
2023/09/05 00:43:23;;;;;;;3.25;2.30;;;17.50;99.90;;;;;;5051692;28;20567;-57
2023/09/05 00:45:52;;;;;;;2.83;2.50;;;17.50;99.90;;;;;;5050967;28;20205;-58
2023/09/05 00:48:27;;;;;;;3.95;2.20;;;17.50;99.90;;;;;;5051733;28;20229;-58
2023/09/05 00:50:56;;;;;;;3.05;2.25;;;17.50;99.90;;;;;;5051779;28;20240;-57
2023/09/05 00:53:23;;;;;;;4.75;2.22;;;17.60;99.90;;;;;;5051475;28;20226;-57
2023/09/05 00:55:50;;;;;;;4.53;2.35;;;17.60;99.90;;;;;;5051148;28;20213;-55
2023/09/05 00:58:18;;;;;;;3.50;2.20;;;17.60;99.90;;;;;;5051377;28;20237;-58
2023/09/05 01:00:45;;;;;;;2.90;2.15;;;17.60;99.90;;;;;;5051443;28;20209;-56
2023/09/05 01:03:12;;;;;;;2.90;2.33;;;17.60;99.90;;;;;;5051233;28;20622;-57
2023/09/05 01:05:45;;;;;;;2.10;1.90;;;17.70;99.90;;;;;;5051221;28;20263;-57
2023/09/05 01:08:21;;;;;;;2.38;1.98;;;17.70;99.90;;;;;;5051187;28;20629;-57
2023/09/05 01:10:56;;;;;;;5.80;2.30;;;17.60;99.90;;;;;;5051384;28;20212;-57
2023/09/05 01:13:25;;;;;;;2.42;2.10;;;17.60;99.90;;;;;;5051595;28;20252;-57
2023/09/05 01:15:53;;;;;;;2.35;1.88;;;17.60;99.90;;;;;;5051860;28;20210;-57
2023/09/05 01:18:20;;;;;;;2.80;2.17;;;17.60;99.90;;;;;;5052198;28;20589;-57
2023/09/05 01:21:08;;;;;;;1.98;1.70;;;17.60;99.90;;;;;;5051309;28;20213;-58
2023/09/05 01:23:43;;;;;;;3.13;2.03;;;17.70;99.90;;;;;;5050877;28;20201;-57
2023/09/05 01:26:12;;;;;;;2.13;1.83;;;17.70;99.90;;;;;;5051289;28;20317;-57
2023/09/05 01:28:41;;;;;;;2.35;1.88;;;17.60;99.90;;;;;;5051102;28;20220;-57
2023/09/05 01:31:09;;;;;;;2.45;2.13;;;17.70;99.90;;;;;;5051389;28;20431;-57
2023/09/05 01:33:38;;;;;;;3.15;2.17;;;17.70;99.90;;;;;;5050797;28;20228;-56
2023/09/05 01:36:06;;;;;;;2.60;2.20;;;17.80;99.90;;;;;;5050503;28;20206;-57
2023/09/05 01:38:33;;;;;;;2.03;1.83;;;17.80;99.90;;;;;;5051167;28;20205;-57
2023/09/05 01:40:59;;;;;;;2.72;1.80;;;17.90;99.90;;;;;;5050985;28;20205;-58
2023/09/05 01:43:28;;;;;;;4.63;2.33;;;17.90;99.90;;;;;;5050865;28;20206;-57
2023/09/05 01:45:54;;;;;;;3.38;2.08;;;17.90;99.90;;;;;;5050846;28;20688;-57
2023/09/05 01:48:21;;;;;;;2.92;2.15;;;18.00;99.90;;;;;;5050795;28;20205;-56
2023/09/05 01:50:49;;;;;;;3.05;2.40;;;18.00;99.90;;;;;;5050759;28;20216;-56
2023/09/05 01:53:15;;;;;;;2.28;1.85;;;18.00;99.90;;;;;;5050862;28;20217;-56
2023/09/05 01:55:42;;;;;;;3.83;2.45;;;18.00;99.90;;;;;;5050719;28;20210;-57
2023/09/05 01:58:09;;;;;;;3.05;1.70;;;17.90;99.90;;;;;;5065566;23;20229;-56
2023/09/05 02:03:12;;;;;;;2.17;1.80;;;17.80;99.90;;;;;;5514025;22;20244;-56
2023/09/05 02:05:39;;;;;;;2.05;1.75;;;17.80;99.90;;;;;;5032834;28;20198;-56
2023/09/05 02:08:06;;;;;;;2.70;2.00;;;17.80;99.90;;;;;;5014821;28;20203;-56
2023/09/05 02:10:32;;;;;;;2.78;1.90;;;17.80;99.90;;;;;;5014839;28;20210;-55
2023/09/05 02:12:59;;;;;;;2.60;1.98;;;17.80;99.90;;;;;;5014366;28;20230;-56
2023/09/05 02:15:26;;;;;;;4.05;2.20;;;17.70;99.90;;;;;;5038146;23;20242;-58
2023/09/05 02:17:55;;;;;;;2.45;1.92;;;17.70;99.90;;;;;;5013176;28;20206;-60
2023/09/05 02:20:23;;;;;;;2.10;1.90;;;17.60;99.90;;;;;;5003626;28;20314;-60
2023/09/05 02:22:50;;;;;;;2.40;1.80;;;17.60;99.90;;;;;;5004074;28;20257;-60
2023/09/05 02:25:17;;;;;;;3.45;1.80;;;17.60;99.90;;;;;;5006613;28;20231;-61
2023/09/05 02:27:43;;;;;;;3.58;2.20;;;17.60;99.90;;;;;;5005984;28;20211;-60
2023/09/05 02:30:11;;;;;;;2.65;2.13;;;17.60;99.90;;;;;;5003239;28;20203;-59
2023/09/05 02:32:37;;;;;;;2.25;1.90;;;17.60;99.90;;;;;;5002833;28;20207;-59
2023/09/05 02:35:06;;;;;;;2.42;2.00;;;17.50;99.90;;;;;;5005763;28;20507;-59
2023/09/05 02:37:34;;;;;;;3.58;2.20;;;17.50;99.90;;;;;;5006324;28;20207;-59
2023/09/05 02:40:00;;;;;;;2.60;2.03;;;17.50;99.90;;;;;;5003597;28;20211;-59
2023/09/05 02:42:27;;;;;;;3.30;1.98;;;17.50;99.90;;;;;;5002341;28;20238;-60
2023/09/05 02:44:54;;;;;;;2.80;1.98;;;17.50;99.90;;;;;;5004035;28;20199;-60
2023/09/05 02:47:22;;;;;;;5.05;2.47;;;17.40;99.90;;;;;;5006045;28;20210;-60
2023/09/05 02:49:48;;;;;;;4.22;2.30;;;17.40;99.90;;;;;;5005301;28;20241;-58
2023/09/05 02:52:15;;;;;;;3.55;2.00;;;17.40;99.90;;;;;;5002275;28;20211;-60
2023/09/05 02:54:43;;;;;;;4.53;1.77;;;17.50;99.90;;;;;;5002367;28;20223;-60
2023/09/05 02:57:10;;;;;;;2.05;1.85;;;17.40;99.90;;;;;;5002541;28;20224;-60
2023/09/05 02:59:36;;;;;;;3.63;2.20;;;17.40;99.90;;;;;;5002688;28;20215;-60
2023/09/05 03:02:04;;;;;;;3.10;2.20;;;17.40;99.90;;;;;;5004936;28;20221;-60
2023/09/05 03:04:32;;;;;;;2.22;1.70;;;17.30;99.90;;;;;;5005613;28;20199;-60
2023/09/05 03:07:01;;;;;;;4.88;2.20;;;17.30;99.90;;;;;;5003225;28;20318;-60
2023/09/05 03:09:27;;;;;;;2.33;2.10;;;17.20;99.90;;;;;;5001766;28;20246;-60
2023/09/05 03:11:56;;;;;;;3.20;1.92;;;17.20;99.90;;;;;;5003282;28;20207;-60
2023/09/05 03:14:22;;;;;;;3.60;1.77;;;17.10;99.90;;;;;;5005306;28;20257;-61
2023/09/05 03:16:49;;;;;;;2.50;1.90;;;17.10;99.90;;;;;;5004120;28;20238;-58
2023/09/05 03:19:16;;;;;;;2.33;2.00;;;17.10;99.90;;;;;;5002119;28;20208;-60
2023/09/05 03:21:42;;;;;;;2.25;2.00;;;17.00;99.90;;;;;;5001617;28;20246;-61
2023/09/05 03:24:09;;;;;;;4.50;3.03;;;17.00;99.90;;;;;;5001886;28;20200;-60
2023/09/05 03:26:36;;;;;;;2.80;2.08;;;17.00;99.90;;;;;;5002082;28;20227;-60
2023/09/05 03:29:07;;;;;;;3.25;2.33;;;17.10;99.90;;;;;;5004486;28;20343;-60
2023/09/05 03:31:33;;;;;;;4.10;2.20;;;17.10;99.90;;;;;;5004837;28;20210;-60
2023/09/05 03:34:00;;;;;;;2.88;2.03;;;17.10;99.90;;;;;;5002506;28;20223;-60
2023/09/05 03:36:27;;;;;;;3.35;2.47;;;17.00;99.90;;;;;;5001527;28;20223;-60
2023/09/05 03:38:53;;;;;;;2.22;2.00;;;17.00;99.90;;;;;;5002577;28;20263;-61
2023/09/05 03:41:20;;;;;;;2.85;2.00;;;17.00;99.90;;;;;;5004535;28;20270;-60
2023/09/05 03:43:47;;;;;;;3.95;2.90;;;17.00;99.90;;;;;;5004202;28;20238;-60
2023/09/05 03:46:15;;;;;;;2.83;2.03;;;17.10;99.90;;;;;;5001203;28;20739;-60
2023/09/05 03:48:41;;;;;;;2.75;2.22;;;17.10;99.90;;;;;;5001416;28;20215;-60
2023/09/05 03:51:08;;;;;;;3.55;2.40;;;17.10;99.90;;;;;;5004525;28;20298;-59
2023/09/05 03:53:35;;;;;;;2.67;2.15;;;17.00;99.90;;;;;;5004726;28;20211;-60
2023/09/05 03:56:02;;;;;;;3.53;2.10;;;17.10;99.90;;;;;;5002153;28;20223;-60
2023/09/05 03:58:28;;;;;;;2.90;2.20;;;17.00;99.90;;;;;;5001319;28;20651;-60
2023/09/05 04:01:02;;;;;;;3.17;2.30;;;16.80;99.90;;;;;;5002824;28;20216;-60
2023/09/05 04:03:32;;;;;;;3.03;2.33;;;16.80;99.90;;;;;;5004232;28;20211;-60
2023/09/05 04:06:01;;;;;;;3.58;2.30;;;16.80;99.90;;;;;;5002140;28;20238;-60
2023/09/05 04:08:28;;;;;;;2.90;2.10;;;16.80;99.90;;;;;;5000786;28;20242;-60
2023/09/05 04:10:59;;;;;;;3.08;2.30;;;16.80;99.90;;;;;;5002368;28;20215;-60
2023/09/05 04:13:26;;;;;;;3.35;2.30;;;16.70;99.90;;;;;;5004214;28;20206;-60
2023/09/05 04:15:53;;;;;;;4.90;2.30;;;16.70;99.90;;;;;;5002817;28;20230;-60
2023/09/05 04:18:19;;;;;;;3.35;2.22;;;16.80;99.90;;;;;;5000539;28;20203;-61
2023/09/05 04:20:47;;;;;;;3.65;2.80;;;16.80;99.90;;;;;;5000420;28;20235;-61
2023/09/05 04:23:14;;;;;;;3.45;2.50;;;16.80;99.90;;;;;;5004010;28;20211;-60
2023/09/05 04:25:41;;;;;;;3.63;2.47;;;16.70;99.90;;;;;;5004012;28;20234;-60
2023/09/05 04:28:07;;;;;;;3.80;2.38;;;16.60;99.90;;;;;;5000874;28;20242;-60
2023/09/05 04:30:34;;;;;;;4.78;2.38;;;16.60;99.90;;;;;;5000566;28;20239;-60
2023/09/05 04:33:02;;;;;;;3.15;2.20;;;16.60;99.90;;;;;;5002359;28;20218;-60
2023/09/05 04:35:29;;;;;;;3.45;2.30;;;16.50;99.90;;;;;;5004004;28;20222;-60
2023/09/05 04:37:58;;;;;;;2.80;2.10;;;16.50;99.90;;;;;;5002191;28;20611;-60
2023/09/05 04:40:24;;;;;;;4.13;2.30;;;16.60;99.90;;;;;;5000503;28;20211;-60
2023/09/05 04:42:51;;;;;;;6.35;2.80;;;16.60;99.90;;;;;;5000680;28;20215;-60
2023/09/05 04:45:18;;;;;;;3.58;2.58;;;16.50;99.90;;;;;;5003398;28;20219;-60
2023/09/05 04:47:44;;;;;;;3.25;2.30;;;16.40;99.90;;;;;;5003758;28;20212;-61
2023/09/05 04:50:11;;;;;;;5.47;3.20;;;16.40;99.90;;;;;;5003730;28;20211;-60
2023/09/05 04:52:38;;;;;;;2.65;2.10;;;16.40;99.90;;;;;;5003369;28;20206;-60
2023/09/05 04:55:07;;;;;;;4.57;2.50;;;16.50;99.90;;;;;;5000672;28;20629;-61
2023/09/05 04:57:34;;;;;;;6.32;2.30;;;16.50;99.90;;;;;;5000333;28;20215;-59
2023/09/05 05:00:00;;;;;;;3.83;2.00;;;16.60;99.90;;;;;;5003507;28;20212;-60
2023/09/05 05:02:28;;;;;;;4.05;2.63;;;16.60;99.90;;;;;;5005481;28;20215;-60
2023/09/05 05:04:55;;;;;;;7.28;2.53;;;16.60;99.90;;;;;;5003881;28;20210;-61
2023/09/05 05:07:22;;;;;;;3.60;2.60;;;16.70;99.90;;;;;;5001793;28;20203;-60
2023/09/05 05:09:49;;;;;;;3.40;2.17;;;16.70;99.90;;;;;;5000426;28;20214;-61
2023/09/05 05:12:18;;;;;;;2.55;2.13;;;16.80;99.90;;;;;;5003143;28;20207;-62
2023/09/05 05:14:45;;;;;;;4.82;2.35;;;16.90;99.90;;;;;;5004788;28;20231;-61
2023/09/05 05:17:12;;;;;;;3.30;2.38;;;16.90;99.90;;;;;;5000649;28;20239;-62
2023/09/05 05:19:39;;;;;;;3.65;2.17;;;17.10;99.90;;;;;;5000584;28;20208;-61
2023/09/05 05:22:06;;;;;;;4.22;2.03;;;17.20;99.90;;;;;;5002024;28;20214;-61
2023/09/05 05:24:33;;;;;;;2.53;2.20;;;17.30;99.90;;;;;;5003561;28;20234;-62
2023/09/05 05:27:00;;;;;;;3.20;2.10;;;17.40;99.90;;;;;;5001729;28;20759;-61
2023/09/05 05:29:32;;;;;;;3.92;2.20;;;17.40;99.90;;;;;;5000361;28;20223;-61
2023/09/05 05:31:58;;;;;;;4.10;2.58;;;17.50;99.90;;;;;;5001659;28;20212;-62
2023/09/05 05:34:25;;;;;;;2.65;2.10;;;17.60;99.90;;;;;;5007589;28;20218;-62
2023/09/05 05:36:52;;;;;;;3.58;2.50;;;17.70;99.90;;;;;;5006658;28;20285;-62
2023/09/05 05:39:21;;;;;;;3.97;2.25;;;17.80;99.90;;;;;;5005962;28;20609;-61
2023/09/05 05:41:48;;;;;;;2.58;2.17;;;18.00;99.90;;;;;;5003366;28;20212;-59
2023/09/05 05:44:15;;;;;;;5.78;1.90;;;18.90;99.90;;;;;;5007074;28;20294;-60
2023/09/05 05:46:43;;;;;;;3.30;2.28;;;20.50;99.90;;;;;;5006834;28;20269;-58
2023/09/05 05:49:10;;;;;;;3.35;1.80;;;22.10;99.90;;;;;;5003425;28;20696;-58
2023/09/05 05:51:38;;;;;;;2.78;2.00;;;23.60;99.90;;;;;;5003075;28;20223;-61
2023/09/05 05:54:04;;;;;;;2.22;2.00;;;25.00;99.90;;;;;;5005194;28;20235;-58
2023/09/05 05:56:31;;;;;;;3.72;2.05;;;26.10;99.90;;;;;;5006491;28;20222;-60
2023/09/05 05:58:58;;;;;;;3.08;2.22;;;27.20;99.90;;;;;;5005389;28;20210;-60
2023/09/05 06:01:25;;;;;;;3.42;2.08;;;28.00;99.90;;;;;;5003296;28;20204;-60
2023/09/05 06:03:53;;;;;;;2.83;2.00;;;28.90;98.70;;;;;;5003713;28;20212;-59
2023/09/05 06:06:20;;;;;;;3.10;2.00;;;29.70;96.60;;;;;;5006421;28;20222;-60
2023/09/05 06:08:47;;;;;;;2.00;1.75;;;30.30;93.90;;;;;;5007050;28;20214;-59
2023/09/05 06:11:13;;;;;;;2.75;1.75;;;30.80;92.40;;;;;;5003205;28;20223;-60
2023/09/05 06:13:40;;;;;;;4.00;1.90;;;31.30;91.10;;;;;;5003061;28;20211;-59
2023/09/05 06:16:07;;;;;;;3.90;1.73;;;32.00;88.60;;;;;;5005184;28;20632;-58
2023/09/05 06:18:33;;;;;;;3.10;1.80;;;32.50;85.10;;;;;;5006440;28;20239;-60
2023/09/05 06:21:01;;;;;;;2.28;1.73;;;32.80;81.70;;;;;;5004661;28;20707;-61
2023/09/05 06:23:30;;;;;;;3.17;2.00;;;32.90;80.30;;;;;;5002782;28;20247;-61
2023/09/05 06:25:57;;;;;;;3.75;1.90;;;33.00;78.80;;;;;;5003884;28;20231;-63
2023/09/05 06:28:24;;;;;;;2.28;1.80;;;33.20;77.10;;;;;;5006172;28;20214;-61
2023/09/05 06:30:51;;;;;;;3.30;1.85;;;33.00;76.20;;;;;;5005911;28;20225;-61
2023/09/05 06:33:19;;;;;;;2.42;1.83;;;32.80;76.80;;;;;;5002589;28;20258;-62
2023/09/05 06:35:46;;;;;;;3.20;1.65;;;33.20;76.10;;;;;;5002598;28;20228;-62
2023/09/05 06:38:14;;;;;;;2.15;1.60;;;34.10;74.00;;;;;;5005753;28;20211;-61
2023/09/05 06:40:41;;;;;;;2.05;1.60;;;34.80;70.60;;;;;;5005992;28;20226;-62
2023/09/05 06:43:09;;;;;;;2.83;2.38;;;35.10;69.40;;;;;;5003175;28;20635;-62
2023/09/05 06:45:36;;;;;;;3.67;1.75;;;35.20;68.00;;;;;;5001889;28;20309;-62
2023/09/05 06:48:03;;;;;;;3.78;1.90;;;34.20;68.70;;;;;;5004364;28;20227;-62
2023/09/05 06:50:30;;;;;;;2.05;1.70;;;32.80;71.30;;;;;;5005751;28;20567;-62
2023/09/05 06:52:56;;;;;;;2.67;1.80;;;31.70;73.80;;;;;;5004678;28;20207;-63
2023/09/05 06:55:24;;;;;;;3.33;1.88;;;30.60;76.50;;;;;;5002331;28;20231;-65
2023/09/05 06:57:51;;;;;;;4.80;1.90;;;29.30;79.30;;;;;;5001979;28;20436;-63
2023/09/05 07:00:25;;;;;;;3.05;1.70;;;28.20;82.80;;;;;;5005624;28;20207;-62
2023/09/05 07:02:52;;;;;;;2.90;2.20;;;27.60;85.90;;;;;;5004747;28;20290;-62
2023/09/05 07:05:19;;;;;;;2.38;1.65;;;28.10;85.80;;;;;;5002401;28;20220;-63
2023/09/05 07:07:45;;;;;;;2.10;1.77;;;29.40;83.10;;;;;;5002289;28;20669;-63
2023/09/05 07:10:12;;;;;;;1.75;1.48;;;30.80;79.50;;;;;;5005267;28;20234;-63
2023/09/05 07:12:40;;;;;;;1.88;1.58;;;32.10;75.40;;;;;;5005231;28;20227;-63
2023/09/05 07:15:08;;;;;;;2.58;1.70;;;33.40;72.50;;;;;;5002772;28;20206;-63
2023/09/05 07:17:34;;;;;;;3.97;1.63;;;34.50;69.40;;;;;;5002471;28;20207;-63
2023/09/05 07:20:01;;;;;;;2.22;1.75;;;35.30;66.60;;;;;;5003584;28;20642;-61
2023/09/05 07:22:28;;;;;;;2.33;1.70;;;35.60;66.40;;;;;;5005541;28;20207;-64
2023/09/05 07:24:55;;;;;;;3.08;2.30;;;35.80;63.80;;;;;;5004686;28;20214;-63
2023/09/05 07:27:21;;;;;;;4.35;1.63;;;35.70;64.00;;;;;;5002352;28;20682;-63
2023/09/05 07:29:49;;;;;;;3.17;1.90;;;35.60;63.70;;;;;;5003077;28;20215;-62
2023/09/05 07:32:16;;;;;;;2.63;1.77;;;35.50;63.50;;;;;;5001915;28;20208;-63
2023/09/05 07:34:43;;;;;;;2.55;1.85;;;35.40;63.40;;;;;;5001926;28;20207;-63
2023/09/05 07:37:09;;;;;;;2.80;1.80;;;35.10;63.60;;;;;;5003909;28;20297;-63
2023/09/05 07:39:36;;;;;;;2.88;1.52;;;34.90;63.40;;;;;;5005120;28;20211;-61
2023/09/05 07:42:05;;;;;;;2.90;1.80;;;35.10;63.20;;;;;;5003269;28;20617;-67
2023/09/05 07:44:31;;;;;;;2.20;1.50;;;35.40;62.40;;;;;;5001301;28;20212;-63
2023/09/05 07:46:59;;;;;;;2.83;1.88;;;35.00;62.10;;;;;;5002271;28;20712;-63
2023/09/05 07:49:27;;;;;;;2.22;1.77;;;34.90;62.90;;;;;;5004618;28;20684;-63
2023/09/05 07:51:54;;;;;;;2.28;1.73;;;34.90;62.20;;;;;;5004154;28;20211;-64
2023/09/05 07:54:25;;;;;;;2.13;1.55;;;35.00;62.10;;;;;;5001299;28;20203;-69
2023/09/05 07:56:52;;;;;;;2.35;1.77;;;34.70;63.10;;;;;;5000005;28;20231;-60
2023/09/05 07:59:19;;;;;;;2.63;1.75;;;33.70;65.90;;;;;;5004348;28;20674;-59
2023/09/05 08:01:45;;;;;;;3.80;1.50;;;32.90;65.80;;;;;;5004487;28;20278;-58
2023/09/05 08:04:13;;;;;;;2.30;1.67;;;32.90;67.10;;;;;;5001515;28;20215;-61
2023/09/05 08:06:40;;;;;;;2.65;1.55;;;33.00;66.80;;;;;;5000990;28;20230;-58
2023/09/05 08:09:07;;;;;;;2.25;1.70;;;32.30;67.20;;;;;;5003005;28;20204;-58
2023/09/05 08:11:34;;;;;;;2.08;1.73;;;31.00;71.00;;;;;;5004444;28;20214;-58
2023/09/05 08:14:00;;;;;;;2.60;1.90;;;29.40;74.00;;;;;;5002804;28;20222;-59
2023/09/05 08:16:29;;;;;;;2.13;1.83;;;28.00;78.70;;;;;;5000872;28;20223;-58
2023/09/05 08:18:56;;;;;;;3.08;1.60;;;26.80;82.20;;;;;;5001632;28;20227;-59
2023/09/05 08:21:26;;;;;;;2.47;1.63;;;26.00;85.40;;;;;;5003824;28;20203;-60
2023/09/05 08:23:53;;;;;;;2.13;1.75;;;25.40;88.20;;;;;;5004052;28;20206;-56
2023/09/05 08:26:19;;;;;;;2.95;1.65;;;24.90;90.50;;;;;;5000605;28;20220;-58
2023/09/05 08:28:46;;;;;;;2.50;1.80;;;24.70;91.00;;;;;;5000635;28;20199;-59
2023/09/05 08:31:13;;;;;;;6.07;1.70;;;24.40;91.70;;;;;;5003526;28;20211;-59
2023/09/05 08:33:40;;;;;;;2.30;1.67;;;24.40;92.00;;;;;;5003741;28;20234;-58
2023/09/05 08:36:09;;;;;;;3.38;1.73;;;24.20;92.40;;;;;;5001635;28;20633;-59
2023/09/05 08:38:37;;;;;;;5.47;1.67;;;24.20;92.70;;;;;;5000248;28;20203;-57
2023/09/05 08:41:06;;;;;;;2.22;1.50;;;24.10;93.30;;;;;;5001748;28;20207;-58
2023/09/05 08:43:33;;;;;;;4.85;1.95;;;24.00;93.70;;;;;;5003620;28;20241;-59
2023/09/05 08:46:02;;;;;;;3.25;2.00;;;24.00;94.00;;;;;;5002740;28;20226;-58
2023/09/05 08:48:29;;;;;;;2.70;2.00;;;24.20;93.90;;;;;;5000424;28;20214;-56
2023/09/05 08:50:56;;;;;;;3.25;1.52;;;24.10;94.30;;;;;;5000634;28;20227;-57
2023/09/05 08:53:30;;;;;;;5.18;1.98;;;24.20;94.10;;;;;;5003035;28;20211;-58
2023/09/05 08:56:00;;;;;;;2.05;1.75;;;24.20;94.50;;;;;;5003102;28;20237;-58
2023/09/05 08:58:28;;;;;;;2.20;1.95;;;24.30;94.30;;;;;;5000290;28;20680;-56
2023/09/05 09:00:55;;;;;;;1.95;1.45;;;24.40;94.30;;;;;;5000231;28;20203;-59
2023/09/05 09:03:22;;;;;;;3.22;1.70;;;24.40;93.90;;;;;;5003223;28;20203;-57
2023/09/05 09:05:49;;;;;;;1.77;1.58;;;24.40;94.00;;;;;;5003431;28;20227;-57
2023/09/05 09:08:19;;;;;;;3.45;1.60;;;24.30;94.10;;;;;;5000221;28;20206;-58
2023/09/05 09:11:06;;;;;;;5.25;1.70;;;24.40;94.10;;;;;;5000118;28;20651;-57
2023/09/05 09:13:33;;;;;;;2.85;1.65;;;24.50;94.40;;;;;;4999663;28;20219;-57
2023/09/05 09:16:00;;;;;;;3.72;1.77;;;24.60;94.30;;;;;;5000325;28;20698;-56
2023/09/05 09:18:31;;;;;;;3.00;1.50;;;24.70;94.30;;;;;;5003501;28;20199;-57
2023/09/05 09:20:59;;;;;;;2.70;1.73;;;24.80;94.30;;;;;;5002644;28;20203;-57
2023/09/05 09:23:27;;;;;;;4.65;2.08;;;24.90;93.90;;;;;;4999647;28;20215;-57
2023/09/05 09:25:55;;;;;;;2.38;1.48;;;24.80;93.90;;;;;;4999921;28;20230;-58
2023/09/05 09:28:26;;;;;;;1.92;1.35;;;24.80;93.90;;;;;;4999800;28;20294;-57
2023/09/05 09:31:01;;;;;;;3.58;1.52;;;24.70;93.30;;;;;;4999882;28;20235;-57
2023/09/05 09:33:29;;;;;;;3.45;1.52;;;24.80;93.50;;;;;;4999331;28;20207;-57
2023/09/05 09:36:06;;;;;;;2.08;1.48;;;24.70;93.00;;;;;;4999611;28;20231;-57
2023/09/05 09:38:34;;;;;;;1.83;1.60;;;24.70;92.80;;;;;;5003222;28;20203;-56
2023/09/05 09:41:02;;;;;;;2.25;1.80;;;24.70;93.20;;;;;;5001919;28;20214;-57
2023/09/05 09:43:31;;;;;;;2.30;1.50;;;24.80;93.30;;;;;;4999196;28;20219;-58
2023/09/05 09:45:59;;;;;;;1.88;1.52;;;24.80;93.60;;;;;;5000728;28;20227;-57
2023/09/05 09:48:27;;;;;;;1.58;1.42;;;24.90;93.40;;;;;;5003736;28;20238;-57
2023/09/05 09:50:56;;;;;;;2.80;1.55;;;25.00;93.10;;;;;;5003192;28;20230;-57
2023/09/05 09:53:34;;;;;;;2.83;1.55;;;25.10;93.20;;;;;;4999476;28;20243;-57
2023/09/05 09:56:03;;;;;;;2.83;1.38;;;25.10;92.40;;;;;;5000076;28;20230;-58
2023/09/05 09:58:32;;;;;;;2.08;1.50;;;25.20;93.00;;;;;;5002807;28;20203;-58
2023/09/05 10:01:01;;;;;;;2.17;1.45;;;25.30;92.70;;;;;;5002329;28;20207;-57
2023/09/05 10:03:28;;;;;;;1.88;1.20;;;25.40;92.50;;;;;;4999203;28;20204;-56
2023/09/05 10:05:57;;;;;;;3.83;1.42;;;25.30;92.70;;;;;;4999267;28;20293;-60
2023/09/05 10:08:25;;;;;;;1.42;1.33;;;25.30;92.50;;;;;;4999249;28;20229;-57
2023/09/05 10:10:54;;;;;;;1.65;1.40;;;25.40;92.50;;;;;;4999044;28;20204;-58
2023/09/05 10:13:26;;;;;;;2.33;1.20;;;25.50;92.50;;;;;;4998961;28;20212;-58
2023/09/05 10:15:57;;;;;;;3.35;1.40;;;25.60;92.40;;;;;;4999100;28;20235;-58
2023/09/05 10:18:24;;;;;;;5.18;1.67;;;25.60;92.60;;;;;;4999293;28;20609;-57
2023/09/05 10:20:52;;;;;;;3.85;1.60;;;25.80;92.70;;;;;;5002248;28;20209;-58
2023/09/05 10:23:20;;;;;;;1.67;1.30;;;25.80;92.20;;;;;;5005802;28;20249;-58
2023/09/05 10:25:48;;;;;;;1.98;1.15;;;25.90;92.80;;;;;;5005994;28;20255;-58
2023/09/05 10:28:15;;;;;;;2.45;1.40;;;26.00;92.20;;;;;;5003641;28;20226;-58
2023/09/05 10:30:46;;;;;;;1.33;1.23;;;26.10;92.70;;;;;;5002897;28;20681;-58
2023/09/05 10:33:15;;;;;;;2.42;1.38;;;26.10;92.40;;;;;;5004508;28;20203;-58
2023/09/05 10:35:45;;;;;;;2.50;1.40;;;26.20;92.50;;;;;;5001207;28;20255;-57
2023/09/05 10:38:12;;;;;;;3.58;1.30;;;26.40;92.40;;;;;;5009871;28;20372;-58
2023/09/05 10:40:40;;;;;;;1.48;1.30;;;26.50;92.20;;;;;;5002091;28;20199;-57
2023/09/05 10:43:08;;;;;;;3.20;1.63;;;26.80;92.30;;;;;;5007268;28;20211;-56
2023/09/05 10:45:36;;;;;;;2.25;1.38;;;26.90;91.80;;;;;;5009342;28;20223;-56
2023/09/05 10:48:12;;;;;;;2.20;1.60;;;27.00;91.50;;;;;;5005299;28;20209;-56
2023/09/05 10:51:10;;;;;;;2.03;1.30;;;27.00;91.00;;;;;;5000569;28;20207;-56
2023/09/05 10:53:38;;;;;;;2.50;1.40;;;26.90;91.10;;;;;;5006731;28;20206;-60
2023/09/05 10:56:05;;;;;;;1.40;1.17;;;27.00;91.00;;;;;;5012284;28;20227;-60
2023/09/05 10:58:47;;;;;;;2.17;1.30;;;27.10;91.40;;;;;;5012988;28;20211;-57
2023/09/05 11:01:44;;;;;;;2.58;1.45;;;27.00;90.90;;;;;;5013074;28;20265;-54
2023/09/05 11:04:24;;;;;;;1.42;1.33;;;27.00;91.10;;;;;;5012625;28;20289;-58
2023/09/05 11:07:03;;;;;;;2.90;1.50;;;27.00;90.80;;;;;;5012263;28;20230;-56
2023/09/05 11:09:39;;;;;;;1.80;1.30;;;27.00;90.80;;;;;;5005646;28;20224;-56
2023/09/05 11:12:07;;;;;;;2.60;1.40;;;27.10;90.80;;;;;;5012029;28;20234;-58
2023/09/05 11:14:35;;;;;;;1.48;1.20;;;27.20;90.50;;;;;;5012067;28;20206;-58
2023/09/05 11:17:02;;;;;;;1.98;1.35;;;27.30;90.50;;;;;;5011804;28;20700;-57
2023/09/05 11:19:31;;;;;;;1.50;1.25;;;27.30;90.40;;;;;;5012380;28;20217;-59
2023/09/05 11:22:10;;;;;;;2.72;1.20;;;27.40;90.50;;;;;;5011976;28;20329;-56
2023/09/05 11:24:37;;;;;;;2.40;1.45;;;27.50;90.60;;;;;;5005870;28;20211;-57
2023/09/05 11:27:06;;;;;;;4.35;1.35;;;27.60;90.40;;;;;;5011888;28;20234;-57
2023/09/05 11:29:33;;;;;;;1.30;1.20;;;27.50;90.50;;;;;;5011927;28;20309;-57
2023/09/05 11:32:00;;;;;;;4.65;1.30;;;27.60;90.50;;;;;;5011153;28;20743;-56
2023/09/05 11:34:28;;;;;;;1.83;1.48;;;27.70;90.20;;;;;;5012012;28;20214;-57
2023/09/05 11:36:56;;;;;;;3.30;1.30;;;27.80;89.20;;;;;;5011895;28;20231;-59
2023/09/05 11:39:28;;;;;;;1.92;1.35;;;27.80;89.20;;;;;;5011909;28;20210;-59
2023/09/05 11:41:58;;;;;;;3.15;1.27;;;27.90;88.80;;;;;;5011376;28;20207;-59
2023/09/05 11:44:32;;;;;;;1.70;1.20;;;28.00;88.80;;;;;;5009299;28;20203;-56
2023/09/05 11:47:00;;;;;;;3.92;1.50;;;28.00;89.10;;;;;;5011907;28;20588;-57
2023/09/05 11:49:27;;;;;;;2.08;1.25;;;28.00;89.40;;;;;;5004752;28;20217;-60
2023/09/05 11:51:54;;;;;;;3.55;1.50;;;28.10;88.10;;;;;;5011250;28;20207;-57
2023/09/05 11:54:21;;;;;;;2.33;1.30;;;28.20;87.60;;;;;;5009869;28;20614;-57
2023/09/05 11:56:50;;;;;;;1.35;1.10;;;28.20;88.40;;;;;;5011083;28;20254;-56
2023/09/05 11:59:17;;;;;;;1.30;1.20;;;28.20;88.40;;;;;;5011831;28;20210;-57
2023/09/05 12:01:44;;;;;;;1.60;1.10;;;28.30;88.00;;;;;;5010630;28;20215;-57
2023/09/05 12:04:11;;;;;;;1.65;1.08;;;28.30;87.50;;;;;;5011563;28;20219;-60
2023/09/05 12:06:37;;;;;;;2.88;1.05;;;28.30;88.50;;;;;;5011250;28;20230;-62
2023/09/05 12:09:09;;;;;;;1.75;1.40;;;28.30;88.20;;;;;;5010891;28;20218;-60
2023/09/05 12:11:35;;;;;;;1.58;1.20;;;28.50;87.70;;;;;;5011297;28;20211;-59
2023/09/05 12:14:04;;;;;;;1.58;1.20;;;28.60;86.80;;;;;;5009646;28;20219;-59
2023/09/05 12:16:31;;;;;;;1.90;1.30;;;28.70;87.00;;;;;;5010789;28;20231;-58
2023/09/05 12:18:58;;;;;;;3.08;1.40;;;28.80;86.50;;;;;;5010968;28;20606;-56
2023/09/05 12:21:28;;;;;;;1.40;1.20;;;28.90;86.20;;;;;;5010429;28;20210;-62
2023/09/05 12:23:54;;;;;;;1.67;1.20;;;28.90;85.40;;;;;;5011207;28;20598;-61
2023/09/05 12:26:38;;;;;;;2.17;1.40;;;28.90;85.10;;;;;;5011405;28;20231;-60
2023/09/05 12:29:06;;;;;;;2.90;1.20;;;29.00;85.70;;;;;;5011454;28;20206;-61
2023/09/05 12:31:32;;;;;;;1.25;1.02;;;29.00;84.80;;;;;;5010738;28;20214;-62
2023/09/05 12:33:59;;;;;;;1.20;1.10;;;29.00;84.00;;;;;;5010304;28;20207;-61
2023/09/05 12:36:29;;;;;;;2.30;1.15;;;29.10;84.40;;;;;;5002801;28;20594;-61
2023/09/05 12:38:56;;;;;;;2.03;1.27;;;29.00;83.10;;;;;;5006849;28;20769;-62
2023/09/05 12:41:22;;;;;;;2.30;1.20;;;29.00;82.70;;;;;;5009971;28;20215;-61
2023/09/05 12:43:49;;;;;;;0.80;0.80;;;28.90;82.90;;;;;;5008351;28;20214;-63
2023/09/05 12:46:17;;;;;;;2.15;1.10;;;28.90;83.00;;;;;;5008288;28;20704;-63
2023/09/05 12:48:44;;;;;;;1.60;1.40;;;29.00;84.00;;;;;;5010498;28;20661;-63
2023/09/05 12:51:11;;;;;;;1.58;1.20;;;29.10;83.50;;;;;;5005081;28;20303;-62
2023/09/05 12:53:38;;;;;;;2.20;1.30;;;29.20;83.60;;;;;;5009333;28;20211;-62
2023/09/05 12:56:08;;;;;;;1.23;1.02;;;29.30;83.60;;;;;;5010480;28;20234;-61